createdAt,value
2023-03-06T19:17:31.536Z,2.07
2023-03-06T19:19:58.563Z,2.27
2023-03-06T19:22:25.658Z,2.37
2023-03-06T19:24:52.777Z,2.63
2023-03-06T19:27:19.850Z,2.20
2023-03-06T19:29:46.870Z,2.47
2023-03-06T19:32:14.512Z,2.20
2023-03-06T19:34:43.088Z,2.30
2023-03-06T19:37:10.123Z,2.80
2023-03-06T19:39:36.966Z,1.97
2023-03-06T19:42:04.582Z,2.40
2023-03-06T19:44:31.652Z,2.27
2023-03-06T19:46:58.526Z,2.13
2023-03-06T19:49:25.786Z,2.40
2023-03-06T19:51:54.169Z,2.57
2023-03-06T19:54:23.285Z,2.27
2023-03-06T19:56:50.284Z,2.63
2023-03-06T19:59:17.386Z,2.60
2023-03-06T20:01:44.606Z,2.07
2023-03-06T20:04:11.514Z,2.67
2023-03-06T20:06:38.953Z,2.43
2023-03-06T20:09:08.931Z,2.87
2023-03-06T20:11:35.926Z,2.30
2023-03-06T20:14:06.214Z,2.43
2023-03-06T20:16:34.201Z,2.23
2023-03-06T20:19:02.013Z,2.40
2023-03-06T20:21:32.034Z,2.33
2023-03-06T20:23:59.346Z,2.30
2023-03-06T20:26:29.047Z,2.57
2023-03-06T20:28:58.306Z,2.27
2023-03-06T20:31:29.364Z,2.80
2023-03-06T20:33:58.588Z,2.53
2023-03-06T20:36:28.904Z,2.50
2023-03-06T20:38:56.525Z,2.20
2023-03-06T20:41:27.581Z,2.70
2023-03-06T20:43:54.993Z,2.73
2023-03-06T20:46:23.527Z,2.93
2023-03-06T20:48:54.156Z,2.60
2023-03-06T20:51:23.943Z,2.97
2023-03-06T20:53:55.534Z,2.23
2023-03-06T20:56:26.194Z,2.60
2023-03-06T20:58:58.062Z,2.67
2023-03-06T21:01:27.784Z,2.73
2023-03-06T21:03:57.124Z,3.10
2023-03-06T21:06:25.441Z,2.90
2023-03-06T21:08:52.555Z,3.00
2023-03-06T21:11:19.612Z,3.27
2023-03-06T21:13:46.720Z,2.90
2023-03-06T21:16:18.391Z,3.40
2023-03-06T21:18:46.266Z,3.10
2023-03-06T21:21:16.561Z,3.37
2023-03-06T21:23:43.543Z,3.00
2023-03-06T21:26:12.977Z,3.20
2023-03-06T21:28:39.976Z,3.70
2023-03-06T21:31:09.608Z,3.77
2023-03-06T21:33:38.223Z,4.73
2023-03-06T21:36:06.769Z,4.87
2023-03-06T21:38:34.766Z,5.07
2023-03-06T21:41:08.549Z,5.57
2023-03-06T21:43:35.454Z,5.47
2023-03-06T21:46:02.558Z,5.57
2023-03-06T21:48:29.482Z,6.40
2023-03-06T21:51:10.425Z,6.07
2023-03-06T21:53:38.533Z,6.87
2023-03-06T21:56:06.569Z,7.00
2023-03-06T21:58:33.884Z,7.83
2023-03-06T22:01:01.039Z,8.53
2023-03-06T22:03:31.211Z,8.13
2023-03-06T22:06:10.212Z,8.83
2023-03-06T22:08:37.177Z,8.67
2023-03-06T22:11:09.525Z,9.07
2023-03-06T22:13:37.003Z,10.57
2023-03-06T22:16:05.300Z,9.97
2023-03-06T22:18:32.942Z,12.13
2023-03-06T22:21:00.285Z,11.50
2023-03-06T22:23:28.503Z,12.37
2023-03-06T22:25:55.342Z,13.03
2023-03-06T22:28:22.312Z,13.10
2023-03-06T22:30:49.233Z,14.63
2023-03-06T22:33:16.094Z,15.33
2023-03-06T22:35:43.023Z,15.00
2023-03-06T22:38:09.992Z,15.50
2023-03-06T22:40:38.277Z,15.57
2023-03-06T22:43:05.186Z,17.80
2023-03-06T22:45:34.806Z,17.67
2023-03-06T22:48:10.637Z,19.60
2023-03-06T22:50:38.101Z,20.63
2023-03-06T22:53:05.017Z,20.03
2023-03-06T22:55:34.600Z,21.23
2023-03-06T22:58:02.816Z,20.17
2023-03-06T23:00:29.668Z,21.80
2023-03-06T23:02:56.554Z,21.60
2023-03-06T23:05:24.837Z,23.03
2023-03-06T23:07:51.767Z,23.43
2023-03-06T23:10:19.157Z,23.37
2023-03-06T23:12:46.104Z,25.30
2023-03-06T23:15:14.268Z,26.10
2023-03-06T23:17:41.294Z,25.90
2023-03-06T23:20:10.446Z,26.07
2023-03-06T23:22:37.315Z,24.33
2023-03-06T23:25:05.910Z,25.90
2023-03-06T23:27:34.784Z,28.10
2023-03-06T23:30:01.727Z,27.80
2023-03-06T23:32:32.315Z,29.83
2023-03-06T23:34:59.323Z,26.70
2023-03-06T23:37:26.574Z,28.63
2023-03-06T23:39:53.548Z,29.97
2023-03-06T23:42:20.522Z,27.80
2023-03-06T23:44:50.039Z,29.27
2023-03-06T23:47:17.228Z,30.87
2023-03-06T23:49:45.441Z,28.93
2023-03-06T23:52:12.548Z,29.30
2023-03-06T23:54:39.736Z,28.87
2023-03-06T23:57:06.985Z,29.93
2023-03-06T23:59:33.904Z,30.20
